Time;durP1;ratioP1;P1;durP2;ratioP2;P2;SDS_P1;SDS_P2;PMS_P1;PMS_P2;Temp;Humidity;BMP_temperature;BMP_pressure;BME280_temperature;BME280_humidity;BME280_pressure;Samples;Min_cycle;Max_cycle;Signal;HPM_P1;HPM_P2
2023/09/19 00:01:00;;;;;;;2.83;1.50;;;;;;;14.85;100.00;100141.22;7396762;19;20459;-44
2023/09/19 00:03:31;;;;;;;4.83;1.20;;;;;;;14.80;100.00;100135.09;7368455;19;20835;-44
2023/09/19 00:06:01;;;;;;;2.90;1.30;;;;;;;14.79;100.00;100135.94;7397848;19;20407;-43
2023/09/19 00:08:30;;;;;;;6.10;2.00;;;;;;;14.74;100.00;100134.97;7373687;19;20447;-45
2023/09/19 00:11:05;;;;;;;5.97;1.90;;;;;;;14.73;100.00;100144.50;7399037;19;20458;-43
2023/09/19 00:13:36;;;;;;;3.57;1.60;;;;;;;14.74;100.00;100147.94;7372842;19;20418;-44
2023/09/19 00:16:11;;;;;;;2.60;1.47;;;;;;;14.69;100.00;100164.34;7399552;19;20412;-42
2023/09/19 00:18:42;;;;;;;3.90;1.80;;;;;;;14.68;100.00;100165.19;7372003;19;20430;-42
2023/09/19 00:21:12;;;;;;;3.83;1.80;;;;;;;14.68;100.00;100162.56;7399369;19;20447;-42
2023/09/19 00:23:43;;;;;;;4.60;1.90;;;;;;;14.70;100.00;100155.72;7373221;19;20424;-44
2023/09/19 00:26:15;;;;;;;4.33;1.80;;;;;;;14.71;100.00;100161.75;7399330;19;20411;-43
2023/09/19 00:28:45;;;;;;;3.50;1.77;;;;;;;14.74;100.00;100155.75;7372944;19;20557;-42
2023/09/19 00:31:14;;;;;;;3.00;1.70;;;;;;;14.68;100.00;100162.56;7399032;19;21048;-42
2023/09/19 00:33:44;;;;;;;3.27;1.60;;;;;;;14.69;100.00;100168.66;7373648;19;20533;-43
2023/09/19 00:36:14;;;;;;;3.77;1.60;;;;;;;14.71;100.00;100172.13;7399069;19;20404;-44
2023/09/19 00:38:45;;;;;;;4.00;1.90;;;;;;;14.80;100.00;100167.13;7372127;19;20427;-43
2023/09/19 00:41:17;;;;;;;5.27;1.83;;;;;;;14.95;100.00;100165.59;7398517;19;20455;-42
2023/09/19 00:43:47;;;;;;;4.67;2.07;;;;;;;14.96;100.00;100169.94;7372567;19;20555;-43
2023/09/19 00:46:19;;;;;;;7.30;2.80;;;;;;;15.06;100.00;100171.84;7398870;19;20412;-42
2023/09/19 00:48:49;;;;;;;4.90;2.00;;;;;;;15.06;100.00;100181.34;7372912;19;21184;-42
2023/09/19 00:51:22;;;;;;;5.60;2.13;;;;;;;15.10;100.00;100196.13;7399572;19;21091;-42
2023/09/19 00:53:52;;;;;;;4.40;2.23;;;;;;;15.18;100.00;100202.28;7371570;19;20439;-44
2023/09/19 00:56:25;;;;;;;4.53;1.90;;;;;;;15.17;100.00;100218.75;7399227;19;20423;-42
2023/09/19 00:58:54;;;;;;;4.70;2.40;;;;;;;15.18;100.00;100230.88;7373691;19;20975;-44
2023/09/19 01:01:25;;;;;;;10.17;2.30;;;;;;;15.21;100.00;100241.31;7396259;19;20447;-43
2023/09/19 01:03:55;;;;;;;6.80;2.37;;;;;;;15.24;100.00;100253.50;7370536;19;20443;-44
2023/09/19 01:06:26;;;;;;;4.97;2.63;;;;;;;15.21;100.00;100253.44;7396008;19;20475;-42
2023/09/19 01:08:56;;;;;;;6.40;2.30;;;;;;;15.20;100.00;100259.47;7372415;19;20440;-43
2023/09/19 01:11:34;;;;;;;5.73;2.50;;;;;;;15.17;100.00;100255.13;7392882;19;20450;-43
2023/09/19 01:14:13;;;;;;;8.87;2.70;;;;;;;15.19;100.00;100261.22;7372922;19;20455;-42
2023/09/19 01:16:50;;;;;;;7.63;2.43;;;;;;;15.20;100.00;100267.28;7397142;19;20483;-42
2023/09/19 01:19:45;;;;;;;8.00;2.53;;;;;;;15.15;100.00;100259.44;7373295;19;20510;-42
2023/09/19 01:22:21;;;;;;;9.93;2.50;;;;;;;15.11;100.00;100263.69;7374083;19;20428;-42
2023/09/19 01:25:18;;;;;;;5.70;2.20;;;;;;;15.04;100.00;100258.38;7395993;19;20404;-43
2023/09/19 01:28:10;;;;;;;4.87;2.67;;;;;;;15.04;100.00;100268.78;7372942;19;20415;-42
2023/09/19 01:30:45;;;;;;;6.43;3.13;;;;;;;15.01;100.00;100269.59;7396314;19;20428;-43
2023/09/19 01:33:15;;;;;;;7.57;2.80;;;;;;;14.99;100.00;100258.31;7371722;19;20478;-43
2023/09/19 01:35:45;;;;;;;7.70;2.80;;;;;;;15.01;100.00;100258.34;7399768;19;20406;-43
2023/09/19 01:38:14;;;;;;;7.33;2.97;;;;;;;15.00;100.00;100252.28;7372799;19;20794;-43
2023/09/19 01:40:45;;;;;;;8.00;3.20;;;;;;;15.06;100.00;100256.66;7396515;19;20431;-41
2023/09/19 01:43:19;;;;;;;8.00;2.90;;;;;;;15.04;100.00;100259.28;7371625;19;20407;-42
2023/09/19 01:46:00;;;;;;;6.87;2.87;;;;;;;15.01;100.00;100254.00;7396797;19;20777;-41
2023/09/19 01:48:38;;;;;;;5.70;3.20;;;;;;;14.99;100.00;100261.78;7372288;19;20431;-44
2023/09/19 01:51:10;;;;;;;6.20;2.63;;;;;;;14.97;100.00;100260.88;7397288;19;20447;-42
2023/09/19 01:53:45;;;;;;;10.47;3.00;;;;;;;14.93;100.00;100272.06;7370475;19;20436;-44
2023/09/19 01:56:19;;;;;;;7.30;3.00;;;;;;;14.95;100.00;100280.78;7399180;19;20429;-43
2023/09/19 01:58:51;;;;;;;8.10;2.77;;;;;;;14.90;100.00;100282.41;7371001;19;21290;-43
2023/09/19 02:01:26;;;;;;;5.73;2.70;;;;;;;14.89;100.00;100280.69;7397024;19;20458;-43
2023/09/19 02:03:56;;;;;;;9.20;2.80;;;;;;;14.90;100.00;100281.53;7370361;19;20442;-42
2023/09/19 02:06:26;;;;;;;7.13;2.60;;;;;;;14.87;100.00;100282.34;7395726;19;20416;-43
2023/09/19 02:08:57;;;;;;;11.37;2.27;;;;;;;14.82;100.00;100295.28;7371806;19;20415;-43
2023/09/19 02:11:26;;;;;;;3.90;1.87;;;;;;;14.78;100.00;100305.59;7395198;19;20451;-43
2023/09/19 02:13:56;;;;;;;5.97;2.10;;;;;;;14.78;100.00;100316.84;7370350;19;20419;-42
2023/09/19 02:16:29;;;;;;;8.20;2.50;;;;;;;14.74;100.00;100321.91;7391562;19;20987;-42
2023/09/19 02:18:59;;;;;;;4.90;2.00;;;;;;;14.69;100.00;100322.72;7369948;19;20483;-42
2023/09/19 02:21:31;;;;;;;6.90;2.77;;;;;;;14.69;100.00;100340.91;7395751;19;20447;-42
2023/09/19 02:24:02;;;;;;;4.17;1.70;;;;;;;14.70;100.00;100350.44;7369159;19;20530;-42
2023/09/19 02:26:35;;;;;;;7.30;2.23;;;;;;;14.74;100.00;100350.47;7394754;19;21241;-44
2023/09/19 02:29:05;;;;;;;9.90;2.20;;;;;;;14.63;100.00;100358.97;7370460;19;20447;-43
2023/09/19 02:31:37;;;;;;;6.97;2.13;;;;;;;14.61;100.00;100354.59;7394892;19;20523;-43
2023/09/19 02:34:08;;;;;;;6.87;2.77;;;;;;;14.52;100.00;100357.88;7369877;19;20419;-43
2023/09/19 02:36:39;;;;;;;8.40;2.50;;;;;;;14.48;100.00;100361.25;7395008;19;20396;-44
2023/09/19 02:39:11;;;;;;;8.60;2.17;;;;;;;14.49;100.00;100357.81;7370522;19;20423;-42
2023/09/19 02:41:41;;;;;;;9.10;2.50;;;;;;;14.44;100.00;100357.72;7395084;19;20471;-42
2023/09/19 02:44:11;;;;;;;9.30;2.80;;;;;;;14.44;100.00;100353.41;7370420;19;20874;-43
2023/09/19 02:46:44;;;;;;;8.00;2.80;;;;;;;14.45;100.00;100349.97;7395565;19;20983;-45
2023/09/19 02:49:14;;;;;;;6.60;2.70;;;;;;;14.47;100.00;100334.44;7371590;19;20468;-45
2023/09/19 02:51:44;;;;;;;9.07;2.73;;;;;;;14.45;100.00;100342.19;7395501;19;20463;-42
2023/09/19 02:54:15;;;;;;;6.77;2.60;;;;;;;14.39;100.00;100342.06;7370103;19;20526;-43
2023/09/19 02:56:45;;;;;;;6.97;2.70;;;;;;;14.40;100.00;100328.25;7397545;19;20433;-43
2023/09/19 02:59:15;;;;;;;5.80;2.60;;;;;;;14.45;100.00;100330.91;7370367;19;20560;-42
2023/09/19 03:01:49;;;;;;;5.47;2.53;;;;;;;14.44;100.00;100324.88;7395110;19;20451;-43
2023/09/19 03:04:19;;;;;;;7.20;2.90;;;;;;;14.43;100.00;100323.13;7369445;19;20863;-45
2023/09/19 03:06:51;;;;;;;8.33;2.50;;;;;;;14.46;100.00;100319.69;7395063;19;20979;-42
2023/09/19 03:09:21;;;;;;;9.57;2.47;;;;;;;14.50;100.00;100323.25;7370897;19;20491;-43
2023/09/19 03:11:52;;;;;;;7.77;3.03;;;;;;;14.53;100.00;100323.28;7394537;19;20451;-43
2023/09/19 03:14:23;;;;;;;6.57;1.97;;;;;;;14.50;100.00;100331.88;7370073;19;20864;-42
2023/09/19 03:16:55;;;;;;;9.10;2.50;;;;;;;14.48;100.00;100335.28;7394927;19;20408;-42
2023/09/19 03:19:26;;;;;;;6.47;2.67;;;;;;;14.52;100.00;100337.13;7370584;19;20889;-43
2023/09/19 03:21:57;;;;;;;6.73;2.17;;;;;;;14.50;100.00;100346.59;7394976;19;20439;-43
2023/09/19 03:24:27;;;;;;;3.70;1.93;;;;;;;14.47;100.00;100347.41;7367245;19;21015;-42
2023/09/19 03:26:57;;;;;;;9.53;2.30;;;;;;;14.49;100.00;100352.59;7395972;19;20483;-43
2023/09/19 03:29:28;;;;;;;5.43;1.70;;;;;;;14.51;100.00;100366.50;7383965;19;20961;-45
2023/09/19 03:32:00;;;;;;;5.20;2.10;;;;;;;14.50;100.00;100375.16;7409298;19;20456;-43
2023/09/19 03:34:30;;;;;;;5.10;2.37;;;;;;;14.54;100.00;100387.31;7382478;19;20450;-42
2023/09/19 03:37:00;;;;;;;10.90;2.00;;;;;;;14.49;100.00;100395.03;7408915;19;20409;-42
2023/09/19 03:39:29;;;;;;;4.90;1.67;;;;;;;14.48;100.00;100413.16;7383654;19;21409;-43
2023/09/19 03:41:59;;;;;;;8.20;2.07;;;;;;;14.44;100.00;100413.13;7408150;19;20884;-43
2023/09/19 03:44:29;;;;;;;7.60;1.60;;;;;;;14.34;100.00;100411.16;7381589;19;21080;-42
2023/09/19 03:47:01;;;;;;;10.00;2.53;;;;;;;14.35;100.00;100425.03;7408681;19;20411;-42
2023/09/19 03:49:31;;;;;;;8.90;2.40;;;;;;;14.33;100.00;100424.97;7384060;19;20422;-43
2023/09/19 03:52:00;;;;;;;5.67;2.20;;;;;;;14.36;100.00;100426.78;7408293;19;20454;-42
2023/09/19 03:54:30;;;;;;;7.47;2.00;;;;;;;14.36;100.00;100430.22;7382876;19;20792;-42
2023/09/19 03:56:59;;;;;;;5.73;1.80;;;;;;;14.35;100.00;100438.84;7408269;19;20758;-42
2023/09/19 03:59:29;;;;;;;6.73;1.80;;;;;;;14.31;100.00;100437.91;7378023;19;20482;-49
2023/09/19 04:02:02;;;;;;;9.47;2.07;;;;;;;14.31;100.00;100444.84;7409367;19;20540;-42
2023/09/19 04:04:31;;;;;;;5.00;1.90;;;;;;;14.33;100.00;100456.13;7381257;19;20437;-43
2023/09/19 04:07:01;;;;;;;4.57;1.53;;;;;;;14.29;100.00;100462.09;7408299;19;20416;-42
2023/09/19 04:09:30;;;;;;;6.17;2.00;;;;;;;14.25;100.00;100455.09;7383300;19;20813;-41
2023/09/19 04:12:00;;;;;;;10.33;2.27;;;;;;;14.12;100.00;100460.00;7408493;19;20480;-43
2023/09/19 04:14:30;;;;;;;11.73;2.63;;;;;;;14.09;100.00;100462.53;7382091;19;20499;-42
2023/09/19 04:17:02;;;;;;;10.00;2.27;;;;;;;14.05;100.00;100476.25;7407475;19;20411;-42
2023/09/19 04:19:32;;;;;;;5.30;1.70;;;;;;;14.03;100.00;100499.59;7382535;19;20422;-42
2023/09/19 04:22:01;;;;;;;8.97;2.20;;;;;;;13.96;100.00;100507.19;7407447;19;20458;-42
2023/09/19 04:24:32;;;;;;;9.37;1.97;;;;;;;13.89;100.00;100521.69;7380440;19;21085;-41
2023/09/19 04:27:01;;;;;;;6.43;1.53;;;;;;;13.80;100.00;100530.16;7407173;19;20939;-42
2023/09/19 04:29:31;;;;;;;6.40;1.63;;;;;;;13.75;100.00;100539.53;7382793;19;20437;-42
2023/09/19 04:32:05;;;;;;;4.87;1.30;;;;;;;13.72;100.00;100561.06;7406853;19;20455;-42
2023/09/19 04:34:35;;;;;;;7.10;1.93;;;;;;;13.68;100.00;100555.78;7381264;19;20997;-43
2023/09/19 04:37:05;;;;;;;3.97;1.93;;;;;;;13.60;100.00;100582.34;7407025;19;20923;-42
2023/09/19 04:39:35;;;;;;;11.10;1.73;;;;;;;13.59;100.00;100575.41;7376170;19;20455;-43
2023/09/19 04:42:06;;;;;;;6.97;2.10;;;;;;;13.55;100.00;100577.88;7399090;19;20447;-41
2023/09/19 04:44:36;;;;;;;6.70;1.53;;;;;;;13.50;100.00;100586.41;7372957;19;20454;-44
2023/09/19 04:47:08;;;;;;;9.87;1.80;;;;;;;13.51;100.00;100608.03;7399655;19;20487;-43
2023/09/19 04:49:39;;;;;;;7.47;1.80;;;;;;;13.40;100.00;100615.47;7376607;19;20459;-42
2023/09/19 04:52:09;;;;;;;9.30;1.70;;;;;;;13.39;100.00;100607.66;7399280;19;20439;-42
2023/09/19 04:54:41;;;;;;;4.50;1.20;;;;;;;13.32;100.00;100615.25;7376296;19;20526;-42
2023/09/19 04:57:10;;;;;;;3.97;1.50;;;;;;;13.27;100.00;100624.59;7399079;19;20411;-43
2023/09/19 04:59:41;;;;;;;5.10;1.40;;;;;;;13.28;100.00;100622.91;7376684;19;20435;-41
2023/09/19 05:02:13;;;;;;;5.80;1.60;;;;;;;13.25;100.00;100626.28;7398377;19;20447;-42
2023/09/19 05:04:43;;;;;;;6.30;1.40;;;;;;;13.22;100.00;100633.94;7374800;19;20455;-42
2023/09/19 05:07:13;;;;;;;5.63;1.30;;;;;;;13.20;100.00;100613.22;7391950;19;20412;-42
2023/09/19 05:09:42;;;;;;;13.77;2.00;;;;;;;13.18;100.00;100634.72;7398225;19;20383;-42
2023/09/19 05:12:12;;;;;;;7.40;1.50;;;;;;;13.15;100.00;100616.47;7399590;19;20451;-42
2023/09/19 05:14:43;;;;;;;12.00;2.17;;;;;;;13.18;100.00;100629.53;7375448;19;20542;-42
2023/09/19 05:17:16;;;;;;;5.47;1.43;;;;;;;13.09;100.00;100633.59;7396066;19;20418;-40
2023/09/19 05:19:46;;;;;;;8.40;1.70;;;;;;;13.08;100.00;100643.94;7397845;19;20416;-42
2023/09/19 05:22:17;;;;;;;11.27;2.83;;;;;;;13.04;100.00;100637.78;7374782;19;20992;-42
2023/09/19 05:24:51;;;;;;;4.63;1.13;;;;;;;13.01;100.00;100632.50;7395852;19;20466;-42
2023/09/19 05:27:20;;;;;;;5.53;1.40;;;;;;;13.04;100.00;100637.78;7373029;19;20904;-42
2023/09/19 05:29:50;;;;;;;8.17;1.67;;;;;;;12.97;100.00;100646.19;7396164;19;20416;-42
2023/09/19 05:32:23;;;;;;;6.20;1.80;;;;;;;12.92;100.00;100637.41;7373972;19;20519;-41
2023/09/19 05:34:53;;;;;;;15.23;2.10;;;;;;;12.93;100.00;100645.22;7395897;19;20931;-43
2023/09/19 05:37:23;;;;;;;6.60;1.80;;;;;;;12.97;100.00;100635.81;7374950;19;20407;-44
2023/09/19 05:39:52;;;;;;;29.43;2.53;;;;;;;12.94;100.00;100635.75;7398720;19;20399;-43
2023/09/19 05:42:22;;;;;;;7.57;1.60;;;;;;;12.89;100.00;100633.03;7373039;19;20443;-42
2023/09/19 05:44:52;;;;;;;10.83;1.83;;;;;;;12.90;100.00;100631.28;7396135;19;20778;-43
2023/09/19 05:47:24;;;;;;;7.30;1.97;;;;;;;12.87;100.00;100629.47;7374637;19;20872;-43
2023/09/19 05:49:54;;;;;;;6.03;1.67;;;;;;;12.85;100.00;100640.63;7396797;19;20404;-42
2023/09/19 05:52:24;;;;;;;8.57;2.13;;;;;;;12.86;100.00;100635.50;7373140;19;20448;-42
2023/09/19 05:54:54;;;;;;;7.63;2.00;;;;;;;12.87;100.00;100628.63;7395837;19;20444;-42
2023/09/19 05:57:24;;;;;;;5.50;1.80;;;;;;;12.88;100.00;100625.19;7374031;19;20403;-43
2023/09/19 05:59:54;;;;;;;5.57;1.30;;;;;;;12.95;100.00;100627.13;7395748;19;20419;-42
2023/09/19 06:02:28;;;;;;;9.83;2.33;;;;;;;12.99;100.00;100623.81;7369568;19;20431;-43
2023/09/19 06:04:59;;;;;;;19.00;5.37;;;;;;;13.08;100.00;100621.47;7395271;19;21093;-44
2023/09/19 06:07:36;;;;;;;22.53;8.13;;;;;;;13.14;100.00;100622.50;7371908;19;20825;-44
2023/09/19 06:10:09;;;;;;;7.67;3.03;;;;;;;13.21;100.00;100625.31;7398615;19;20412;-43
2023/09/19 06:12:40;;;;;;;6.40;2.33;;;;;;;13.26;100.00;100638.41;7372100;19;20407;-42
2023/09/19 06:15:14;;;;;;;8.07;1.90;;;;;;;13.33;100.00;100640.31;7397923;19;20410;-42
2023/09/19 06:17:49;;;;;;;8.53;2.97;;;;;;;13.39;100.00;100650.00;7371364;19;20399;-41
2023/09/19 06:20:19;;;;;;;43.53;12.93;;;;;;;13.38;100.00;100663.78;7395297;19;20415;-42
2023/09/19 06:22:50;;;;;;;20.33;8.23;;;;;;;13.41;100.00;100678.53;7370525;19;20414;-41
2023/09/19 06:25:20;;;;;;;16.33;4.00;;;;;;;13.42;100.00;100676.00;7397132;19;20958;-41
2023/09/19 06:27:52;;;;;;;9.17;2.87;;;;;;;13.43;100.00;100687.25;7371458;19;20410;-41
2023/09/19 06:30:22;;;;;;;15.70;2.73;;;;;;;13.42;100.00;100690.66;7396619;19;20991;-42
2023/09/19 06:32:58;;;;;;;8.23;2.80;;;;;;;13.45;100.00;100693.34;7371306;19;20415;-41
2023/09/19 06:35:29;;;;;;;24.00;7.33;;;;;;;13.48;100.00;100712.47;7396538;19;20409;-42
2023/09/19 06:38:00;;;;;;;25.23;6.93;;;;;;;13.48;100.00;100717.66;7370491;19;20420;-44
2023/09/19 06:40:30;;;;;;;8.03;2.17;;;;;;;13.56;100.00;100717.00;7394196;19;20757;-42
2023/09/19 06:43:02;;;;;;;16.10;4.73;;;;;;;13.55;100.00;100716.16;7370559;19;20398;-42
2023/09/19 06:45:32;;;;;;;18.17;5.50;;;;;;;13.55;100.00;100708.38;7394870;19;20951;-42
2023/09/19 06:48:04;;;;;;;18.13;3.97;;;;;;;13.55;100.00;100718.75;7370815;19;20395;-42
2023/09/19 06:50:35;;;;;;;13.43;4.13;;;;;;;13.62;100.00;100725.84;7394115;19;20485;-41
2023/09/19 06:53:05;;;;;;;8.97;1.90;;;;;;;13.68;100.00;100726.88;7370569;19;20423;-41
2023/09/19 06:55:36;;;;;;;13.57;3.83;;;;;;;13.72;100.00;100736.47;7394331;19;20414;-41
2023/09/19 06:58:06;;;;;;;9.43;3.07;;;;;;;13.71;100.00;100739.91;7370348;19;20399;-42
2023/09/19 07:00:36;;;;;;;9.20;2.27;;;;;;;13.72;100.00;100758.09;7394564;19;20411;-42
2023/09/19 07:03:11;;;;;;;8.90;1.90;;;;;;;13.72;100.00;100762.41;7367511;19;20410;-41
2023/09/19 07:05:42;;;;;;;14.87;2.40;;;;;;;13.69;100.00;100778.75;7394264;19;20419;-43
2023/09/19 07:08:13;;;;;;;21.70;4.13;;;;;;;13.80;100.00;100771.31;7370740;19;20422;-42
2023/09/19 07:10:48;;;;;;;27.93;9.70;;;;;;;13.78;100.00;100783.31;7394839;19;20408;-41
2023/09/19 07:13:19;;;;;;;10.10;2.10;;;;;;;13.82;100.00;100785.19;7371272;19;20938;-42
2023/09/19 07:15:49;;;;;;;25.33;8.33;;;;;;;13.86;100.00;100793.91;7393931;19;20430;-41
2023/09/19 07:18:22;;;;;;;7.57;1.90;;;;;;;13.89;100.00;100797.47;7370083;19;20395;-41
2023/09/19 07:20:52;;;;;;;13.03;3.27;;;;;;;13.91;100.00;100795.81;7395967;19;20451;-41
2023/09/19 07:23:22;;;;;;;15.10;3.50;;;;;;;13.97;100.00;100812.38;7370308;19;20478;-42
2023/09/19 07:25:52;;;;;;;19.57;4.07;;;;;;;13.98;100.00;100795.97;7394544;19;20403;-42
2023/09/19 07:28:22;;;;;;;14.97;4.10;;;;;;;13.94;100.00;100795.00;7370281;19;20470;-42
2023/09/19 07:30:52;;;;;;;16.23;6.00;;;;;;;13.95;100.00;100795.91;7393239;19;20448;-42
2023/09/19 07:33:26;;;;;;;9.03;1.93;;;;;;;13.96;100.00;100793.38;7368114;19;20879;-42
2023/09/19 07:35:56;;;;;;;14.40;3.93;;;;;;;13.96;100.00;100802.84;7393292;19;20444;-41
2023/09/19 07:38:28;;;;;;;12.20;2.77;;;;;;;13.97;100.00;100804.59;7365930;19;20415;-43
2023/09/19 07:41:03;;;;;;;20.73;5.60;;;;;;;14.02;100.00;100809.09;7391565;19;20819;-42
2023/09/19 07:43:33;;;;;;;9.60;2.80;;;;;;;13.96;100.00;100818.41;7365692;19;20451;-42
2023/09/19 07:46:06;;;;;;;18.93;4.60;;;;;;;14.00;100.00;100809.88;7392629;19;20416;-43
2023/09/19 07:48:40;;;;;;;11.40;2.90;;;;;;;13.98;100.00;100803.75;7365517;19;20415;-43
2023/09/19 07:51:10;;;;;;;8.80;3.33;;;;;;;13.93;100.00;100802.78;7391573;19;20460;-42
2023/09/19 07:53:40;;;;;;;8.23;2.87;;;;;;;13.94;100.00;100809.72;7365855;19;20423;-41
2023/09/19 07:56:11;;;;;;;11.27;2.50;;;;;;;13.91;100.00;100779.38;7392991;19;20467;-42
2023/09/19 07:58:43;;;;;;;7.37;2.07;;;;;;;13.87;100.00;100787.91;7366802;19;20869;-41
2023/09/19 08:01:13;;;;;;;10.13;3.10;;;;;;;13.89;100.00;100812.16;7394816;19;20975;-42
2023/09/19 08:03:45;;;;;;;10.30;2.73;;;;;;;13.94;100.00;100830.47;7366390;19;20832;-42
2023/09/19 08:06:16;;;;;;;9.97;3.00;;;;;;;13.88;100.00;100837.22;7394557;19;20399;-43
2023/09/19 08:08:46;;;;;;;8.70;2.60;;;;;;;13.87;100.00;100861.41;7367826;19;21288;-44
2023/09/19 08:11:21;;;;;;;6.07;1.70;;;;;;;13.83;100.00;100864.72;7393867;19;20530;-45
2023/09/19 08:13:51;;;;;;;10.10;3.00;;;;;;;13.87;100.00;100865.69;7368879;19;20442;-42
2023/09/19 08:16:22;;;;;;;10.73;2.60;;;;;;;13.84;100.00;100863.88;7400115;19;20774;-42
2023/09/19 08:18:54;;;;;;;6.63;1.90;;;;;;;13.84;100.00;100876.84;7374766;19;20470;-42
2023/09/19 08:21:25;;;;;;;11.07;3.67;;;;;;;13.90;100.00;100868.41;7400590;19;20991;-42
2023/09/19 08:23:55;;;;;;;8.07;2.60;;;;;;;13.83;100.00;100875.09;7374256;19;20423;-42
2023/09/19 08:26:25;;;;;;;8.00;2.73;;;;;;;13.94;100.00;100872.81;7399833;19;20932;-42
2023/09/19 08:28:55;;;;;;;10.00;2.57;;;;;;;14.01;100.00;100864.38;7375019;19;20437;-41
2023/09/19 08:31:25;;;;;;;11.83;2.60;;;;;;;14.00;100.00;100859.16;7403086;19;20543;-42
2023/09/19 08:33:58;;;;;;;12.20;3.30;;;;;;;14.03;100.00;100851.47;7374708;19;21039;-41
2023/09/19 08:36:27;;;;;;;10.20;2.73;;;;;;;14.03;100.00;100848.88;7401325;19;20433;-42
2023/09/19 08:38:57;;;;;;;10.53;3.70;;;;;;;14.09;100.00;100843.00;7374805;19;20425;-42
2023/09/19 08:41:26;;;;;;;7.77;3.77;;;;;;;14.11;100.00;100833.53;7402168;19;20439;-42
2023/09/19 08:43:56;;;;;;;7.90;2.23;;;;;;;14.09;100.00;100837.81;7373983;19;20479;-41
2023/09/19 08:46:27;;;;;;;9.40;2.87;;;;;;;14.07;100.00;100831.69;7400756;19;20788;-42
2023/09/19 08:49:03;;;;;;;12.00;2.67;;;;;;;14.03;100.00;100841.09;7372343;19;20438;-41
2023/09/19 08:51:36;;;;;;;9.60;2.73;;;;;;;14.09;100.00;100843.84;7396163;19;20872;-42
2023/09/19 08:54:09;;;;;;;8.90;2.50;;;;;;;14.10;100.00;100848.22;7373212;19;20431;-43
2023/09/19 08:56:39;;;;;;;9.47;1.63;;;;;;;14.10;100.00;100850.81;7397836;19;20416;-42
2023/09/19 08:59:11;;;;;;;16.20;2.33;;;;;;;14.11;100.00;100847.38;7372736;19;20502;-42
2023/09/19 09:01:41;;;;;;;9.00;2.27;;;;;;;14.16;100.00;100850.97;7397021;19;20443;-50
2023/09/19 09:04:14;;;;;;;18.97;6.03;;;;;;;14.22;100.00;100863.25;7370935;19;20463;-42
2023/09/19 09:06:48;;;;;;;10.77;2.30;;;;;;;14.31;100.00;100857.47;7396906;19;20451;-43
2023/09/19 09:09:18;;;;;;;9.13;2.80;;;;;;;14.27;100.00;100876.38;7371665;19;20534;-43
2023/09/19 09:11:48;;;;;;;10.60;2.33;;;;;;;14.34;100.00;100886.06;7398605;19;20468;-43
2023/09/19 09:14:17;;;;;;;8.83;2.77;;;;;;;14.47;100.00;100883.81;7371200;19;20443;-44
2023/09/19 09:16:48;;;;;;;14.90;3.87;;;;;;;14.48;100.00;100886.47;7394943;19;20433;-42
2023/09/19 09:19:24;;;;;;;16.40;2.30;;;;;;;14.57;100.00;100891.03;7375268;19;20446;-42
2023/09/19 09:21:54;;;;;;;13.20;2.50;;;;;;;14.57;100.00;100884.13;7402356;19;20443;-41
2023/09/19 09:24:33;;;;;;;20.03;6.90;;;;;;;14.58;100.00;100892.78;7376022;19;20451;-42
2023/09/19 09:27:08;;;;;;;11.73;2.53;;;;;;;14.67;100.00;100895.63;7400562;19;20964;-41
2023/09/19 09:29:47;;;;;;;20.87;6.23;;;;;;;14.71;100.00;100874.09;7378750;19;20439;-42
2023/09/19 09:32:23;;;;;;;12.43;2.80;;;;;;;14.79;100.00;100882.16;7377238;19;20447;-42
2023/09/19 09:34:57;;;;;;;36.57;3.40;;;;;;;14.84;100.00;100875.34;7400630;19;20399;-43
2023/09/19 09:37:31;;;;;;;8.30;2.27;;;;;;;14.90;100.00;100877.22;7374523;19;20402;-42
2023/09/19 09:40:19;;;;;;;15.23;4.63;;;;;;;15.02;100.00;100865.41;7399781;19;20455;-42
2023/09/19 09:42:49;;;;;;;14.50;2.80;;;;;;;15.05;100.00;100862.84;7374604;19;20493;-41
2023/09/19 09:45:28;;;;;;;10.20;2.30;;;;;;;15.11;100.00;100858.72;7402424;19;20414;-41
2023/09/19 09:47:55;;;;;;;6.57;2.60;;;;;;;15.29;100.00;100841.81;7374698;19;20403;-42
2023/09/19 09:50:44;;;;;;;11.40;3.00;;;;;;;15.36;100.00;100842.81;7400540;19;20420;-43
2023/09/19 09:53:25;;;;;;;21.93;7.03;;;;;;;15.37;100.00;100815.97;7375180;19;20461;-44
2023/09/19 09:56:05;;;;;;;10.77;3.43;;;;;;;15.47;100.00;100804.94;7400000;19;20411;-42
2023/09/19 09:58:37;;;;;;;15.03;4.57;;;;;;;15.59;100.00;100791.31;7373738;19;20423;-41
2023/09/19 10:01:15;;;;;;;41.33;14.20;;;;;;;15.55;100.00;100765.22;7401638;19;20786;-42
2023/09/19 10:03:48;;;;;;;14.93;5.40;;;;;;;15.66;100.00;100763.75;7373065;19;20436;-42
2023/09/19 10:06:28;;;;;;;11.93;2.53;;;;;;;15.73;100.00;100757.81;7399805;19;20479;-44
2023/09/19 10:09:06;;;;;;;14.07;2.90;;;;;;;15.84;100.00;100728.56;7374892;19;20455;-43
2023/09/19 10:11:39;;;;;;;19.07;4.50;;;;;;;15.68;100.00;100699.63;7400624;19;20451;-42
2023/09/19 10:14:09;;;;;;;9.80;2.20;;;;;;;15.72;100.00;100705.75;7373097;19;20455;-42
2023/09/19 10:16:44;;;;;;;13.10;3.63;;;;;;;15.81;100.00;100705.94;7398316;19;20407;-43
2023/09/19 10:19:18;;;;;;;12.33;3.60;;;;;;;15.83;100.00;100651.38;7374782;19;20443;-42
2023/09/19 10:21:50;;;;;;;23.87;5.63;;;;;;;15.99;100.00;100661.22;7399597;19;20469;-43
2023/09/19 10:24:21;;;;;;;13.63;2.27;;;;;;;15.90;100.00;100617.66;7374618;19;20534;-42
2023/09/19 10:26:52;;;;;;;13.43;4.20;;;;;;;15.93;100.00;100609.06;7399428;19;20417;-42
2023/09/19 10:29:24;;;;;;;8.20;2.57;;;;;;;15.93;100.00;100572.66;7374593;19;20453;-42
2023/09/19 10:31:55;;;;;;;15.57;4.10;;;;;;;16.02;100.00;100570.22;7399735;19;20451;-43
2023/09/19 10:34:25;;;;;;;14.50;4.10;;;;;;;16.19;100.00;100535.75;7371632;19;20427;-43
2023/09/19 10:36:57;;;;;;;8.77;1.77;;;;;;;16.22;100.00;100527.13;7397669;19;20404;-43
2023/09/19 10:39:27;;;;;;;8.80;2.77;;;;;;;16.18;100.00;100446.41;7374440;19;20419;-43
2023/09/19 10:41:59;;;;;;;9.93;2.03;;;;;;;16.20;100.00;100403.06;7398975;19;20459;-44
2023/09/19 10:44:29;;;;;;;12.60;3.63;;;;;;;16.25;100.00;100348.44;7373278;19;20514;-43
2023/09/19 10:46:59;;;;;;;8.00;2.70;;;;;;;16.25;100.00;100313.75;7399497;19;20479;-42
2023/09/19 10:49:31;;;;;;;11.23;2.47;;;;;;;16.39;100.00;100309.56;7374442;19;20862;-43
2023/09/19 10:52:04;;;;;;;8.00;2.13;;;;;;;16.39;100.00;100280.03;7400289;19;20542;-43
2023/09/19 10:54:36;;;;;;;12.83;1.80;;;;;;;16.28;100.00;100269.53;7373909;19;20476;-42
2023/09/19 10:57:09;;;;;;;9.60;2.17;;;;;;;16.35;100.00;100275.69;7399288;19;20460;-43
2023/09/19 10:59:40;;;;;;;7.87;1.40;;;;;;;16.36;100.00;100274.81;7376737;19;20439;-42
2023/09/19 11:02:19;;;;;;;5.63;1.40;;;;;;;16.33;100.00;100258.31;7399661;19;20461;-43
2023/09/19 11:04:49;;;;;;;10.07;2.10;;;;;;;16.35;100.00;100228.84;7376204;19;20461;-42
2023/09/19 11:07:25;;;;;;;4.70;1.23;;;;;;;16.19;100.00;100245.16;7375617;19;20827;-43
2023/09/19 11:09:58;;;;;;;7.97;1.93;;;;;;;16.21;100.00;100258.19;7397071;19;20428;-43
2023/09/19 11:13:04;;;;;;;7.63;1.63;;;;;;;16.19;100.00;100257.28;7374271;19;20447;-42
2023/09/19 11:16:19;;;;;;;7.70;2.20;;;;;;;16.18;100.00;100263.34;7396682;19;20419;-42
2023/09/19 11:18:55;;;;;;;8.40;1.97;;;;;;;16.03;100.00;100279.66;7369829;19;20447;-42
2023/09/19 11:21:42;;;;;;;6.70;1.43;;;;;;;15.96;100.00;100294.34;7394801;19;21001;-42
2023/09/19 11:24:38;;;;;;;9.70;1.83;;;;;;;15.96;100.00;100304.75;7368516;19;20439;-44
2023/09/19 11:27:17;;;;;;;13.70;2.00;;;;;;;16.12;100.00;100302.31;7395247;19;20400;-42
2023/09/19 11:29:49;;;;;;;9.80;2.53;;;;;;;16.33;100.00;100299.09;7370454;19;20435;-43
2023/09/19 11:32:20;;;;;;;8.53;2.03;;;;;;;16.33;100.00;100280.88;7372108;19;20454;-41
2023/09/19 11:34:53;;;;;;;5.83;1.33;;;;;;;16.36;100.00;100257.44;7393112;19;20405;-43
2023/09/19 11:38:02;;;;;;;9.10;2.00;;;;;;;16.46;100.00;100264.50;7371454;19;20419;-43